Terminal Aerodrome Forecast
Issued by NWS

Home | Current Version | Previous Version | Text Only | Print | Product List | Glossary Off
Versions: 1 2 3 4 5 6 7 8 9 10 11 12 13 14 15

011
FTUS43 KMPX 111720
TAFRWF
TAF
KRWF 111720Z 1118/1218 32021G34KT P6SM OVC014
     FM120000 33017G27KT P6SM FEW025
     FM120500 32012KT P6SM SKC
     FM120900 31008KT P6SM BKN100
     FM121400 27006KT P6SM BKN025 OVC100=

USA.gov is the U.S. government's official web portal to all federal, state and local government web resources and services.